Aérodrome :
LOGIN :

S'inscrire | Disclaimer

   EN    FR    IT 

 










Légende :    VFR   VFR Marginal   IFR   IFR Intensif   IFR Très Intensif
Visi : 
Plafond : 
>= 8 km
>= 3000ft
5 à 8 km
1000 à 3000 ft
1500m à 5 km
500 à 1000 ft
800 à 1500m
200 à 500 ft
< 800m
< 200 ft
Symboles :   Orages  Brouillard  Fortes neiges  Fortes précipitations  Vent > 20 kt
SIGMETs :   Divers  Orages  Givrage  Turbulence  Onde Orograph.  Cendres Volcan.







- Altitude de l'aérodrome : 1197 ft
- Code IATA : SPM


ETAD - Spangdahlem Ab

DERNIER METAR :
  • 111432Z AUTO 25005KT 9999 BKN025 04/M01 A3019 RMK AO2 DZB06E17 SLP231 $

METARs EXPIRÉS :
  • 111417Z AUTO 26005KT 9999 SCT026 04/M01 A3020 RMK AO2 DZB06E17 SLP234 $
  • 111409Z AUTO 26005KT 9999 -DZ FEW027 05/00 A3020 RMK AO2 DZB06 SLP233 $
  • 111356Z AUTO 29006KT 9999 CLR 06/M01 A3020 RMK AO2 SLP233 T00581007 $
  • 111326Z AUTO 27005KT 9999 SCT055 05/M01 A3020 RMK AO2 SLP233 $
  • 111311Z AUTO 27007KT 9999 FEW027 SCT034 OVC055 05/00 A3020 RMK AO2 SLP233 $
  • 111256Z AUTO 28007KT 9999 SCT025 BKN034 BKN049 OVC060 04/00 A3020 RMK AO2 RAB1157E01DZB01E08 SLP234 P0000 T00441002 $
  • 111208Z AUTO 29006KT 9999 SCT020 SCT025 OVC050 05/00 A3021 RMK AO2 RAB1157E01DZB01E08 SLP236 $
  • 111157Z AUTO 27005KT 9999 -RA BKN018 BKN050 05/00 A3021 RMK AO2 RAB57 BKN018 V SCT SLP236 $
  • 111156Z AUTO 28006KT 9999 BKN018 05/01 A3021 RMK AO2 BKN V SCT SLP236 T00510005 10060 20002 58004 $

TAF TAF ETAD
Valide du 11 à 13h jusqu'au 12 à 19h UTC


111300Z 1113/1219 24007KT 9999 SCT030 QNH3022INS
BECMG 1123/1124 31006KT 6000 BR SCT010 BKN035 QNH3018INS
BECMG 1206/1207 31009KT 9000 BR BKN010 620259 QNH3020INS
BECMG 1212/1213 31009KT 9999 NSW SCT010 BKN020 620259 QNH3020INS TX04/1113Z TNM02/1206Z
Pas de NOTAMs connus pour ce terrain.



MET'MAP, la Météo Aéronautique d'un coup d'oeil ! - Copyright ORBIFLY Décembre 2007 - Disclaimer

ORBIFLY MET'MAP TEAM :

Programmation & Développement : Alexandra Zaïnal
Conception & Développement : Baudouin d'Aumeries
Co-Programmation & Développement : Marc-Olivier Méhu
Soutien technique & logistique : Manuel Goepfert

Contact : metmap@orbifly.com




SOURCES & CREDITS :

   NOAA